Kimberly Turecamo — WDC6838 — position and weather

sailwx.info

Track history (hours):
 
Tides and Currents Weather Stations Pressure Air Temp Water Temp Dewpoint Dewpoint Depression Visibility Wind Speed Wind Dir Waves Ship Positions

Kimberly Turecamo

Owner: Moran Towing Corporation, New Canaan, CT. More information available from US FCC via Universal Licensing System and Coast Guard Vessel Documentation Center.

Last reported at 2014-Oct-31 08:33 UTC. Time now 2014-Oct-31 08:36 UTC.
Position N 39°35' W 075°36'.

Length 33 m; draft 5 m.

Type: Tug. MMSI: 367061980.

Date/timePositionNaut miles runAvg speedWind from/ knotsBaromVisibWave heightAir tempDewpointWater temp
2014-Oct-31 08:33N 39°35' W 075°36'0 0.0
2014-Oct-31 07:33N 39°35' W 075°36'0 0.0
2014-Oct-31 06:33N 39°35' W 075°35'0 0.0
2014-Oct-31 05:33N 39°35' W 075°35'0 0.0
2014-Oct-31 04:33N 39°35' W 075°36'0 0.0
2014-Oct-31 03:33N 39°35' W 075°36'2 1.8
2014-Oct-31 02:33N 39°34' W 075°34'1 0.5
2014-Oct-31 01:33N 39°35' W 075°33'8 8.2
2014-Oct-31 00:33N 39°43' W 075°31'19 1.5
2014-Oct-30 12:25N 39°53' W 075°11'3 0.4
2014-Oct-30 05:31N 39°51' W 075°14'0 0.0
2014-Oct-28 13:29N 39°51' W 075°14'0 0.0
2014-Oct-28 12:25N 39°51' W 075°14'0 0.0
2014-Oct-28 10:33N 39°51' W 075°14'0 0.0
2014-Oct-28 01:25N 39°51' W 075°14'0 0.0
2014-Oct-28 00:33N 39°51' W 075°14'0 0.0
2014-Oct-27 22:23N 39°51' W 075°14'2 0.2
2014-Oct-27 13:28N 39°53' W 075°12'2 2.3
2014-Oct-27 12:33N 39°51' W 075°14'0 0.0
2014-Oct-27 11:33N 39°51' W 075°14'0 0.0
2014-Oct-27 10:24N 39°51' W 075°14'0 0.1
2014-Oct-27 09:32N 39°51' W 075°14'0 0.0
2014-Oct-27 03:14N 39°51' W 075°14'0 0.0
2014-Oct-27 02:23N 39°51' W 075°14'0 0.0
2014-Oct-27 01:30N 39°51' W 075°14'0 0.0
2014-Oct-26 12:21N 39°51' W 075°14'0 0.0
2014-Oct-26 11:33N 39°51' W 075°14'0 0.0
2014-Oct-26 09:30N 39°51' W 075°14'0 0.1
2014-Oct-26 08:29N 39°51' W 075°14'0 0.0
2014-Oct-25 13:33N 39°51' W 075°14'0 0.0
2014-Oct-25 12:33N 39°51' W 075°14'0 0.0
2014-Oct-25 08:25N 39°51' W 075°14'0 0.0
2014-Oct-25 01:27N 39°51' W 075°14'0 0.0
2014-Oct-25 00:24N 39°51' W 075°14'0 0.0
2014-Oct-24 23:25N 39°51' W 075°14'0 0.0
2014-Oct-24 20:07N 39°51' W 075°14'0 0.0
2014-Oct-24 12:09N 39°51' W 075°14'0 0.0
2014-Oct-24 11:32N 39°51' W 075°14'0 0.0
2014-Oct-24 08:18N 39°51' W 075°14'0 0.0
2014-Oct-23 06:31N 39°51' W 075°14'0 0.0
2014-Oct-23 01:14N 39°51' W 075°14'0 0.0
2014-Oct-22 00:08N 39°51' W 075°14'0 0.1
2014-Oct-21 23:33N 39°51' W 075°14'0 0.0
2014-Oct-21 11:33N 39°51' W 075°14'  
Track history (hours):
 
Tides and Currents Weather Stations Pressure Air Temp Water Temp Dewpoint Dewpoint Depression Visibility Wind Speed Wind Dir Waves Ship Positions

Kimberly Turecamo

Owner: Moran Towing Corporation, New Canaan, CT. More information available from US FCC via Universal Licensing System and Coast Guard Vessel Documentation Center.

Last reported at 2014-Oct-31 08:33 UTC. Time now 2014-Oct-31 08:36 UTC.
Position N 39°35' W 075°36'.

Length 33 m; draft 5 m.

Type: Tug. MMSI: 367061980.

Date/timePositionNaut miles runAvg speedWind from/ knotsBaromVisibWave heightAir tempDewpointWater temp
2014-Oct-31 08:33N 39°35' W 075°36'0 0.0
2014-Oct-31 07:33N 39°35' W 075°36'0 0.0
2014-Oct-31 06:33N 39°35' W 075°35'0 0.0
2014-Oct-31 05:33N 39°35' W 075°35'0 0.0
2014-Oct-31 04:33N 39°35' W 075°36'0 0.0
2014-Oct-31 03:33N 39°35' W 075°36'2 1.8
2014-Oct-31 02:33N 39°34' W 075°34'1 0.5
2014-Oct-31 01:33N 39°35' W 075°33'8 8.2
2014-Oct-31 00:33N 39°43' W 075°31'19 1.5
2014-Oct-30 12:25N 39°53' W 075°11'3 0.4
2014-Oct-30 05:31N 39°51' W 075°14'0 0.0
2014-Oct-28 13:29N 39°51' W 075°14'0 0.0
2014-Oct-28 12:25N 39°51' W 075°14'0 0.0
2014-Oct-28 10:33N 39°51' W 075°14'0 0.0
2014-Oct-28 01:25N 39°51' W 075°14'0 0.0
2014-Oct-28 00:33N 39°51' W 075°14'0 0.0
2014-Oct-27 22:23N 39°51' W 075°14'2 0.2
2014-Oct-27 13:28N 39°53' W 075°12'2 2.3
2014-Oct-27 12:33N 39°51' W 075°14'0 0.0
2014-Oct-27 11:33N 39°51' W 075°14'0 0.0
2014-Oct-27 10:24N 39°51' W 075°14'0 0.1
2014-Oct-27 09:32N 39°51' W 075°14'0 0.0
2014-Oct-27 03:14N 39°51' W 075°14'0 0.0
2014-Oct-27 02:23N 39°51' W 075°14'0 0.0
2014-Oct-27 01:30N 39°51' W 075°14'0 0.0
2014-Oct-26 12:21N 39°51' W 075°14'0 0.0
2014-Oct-26 11:33N 39°51' W 075°14'0 0.0
2014-Oct-26 09:30N 39°51' W 075°14'0 0.1
2014-Oct-26 08:29N 39°51' W 075°14'0 0.0
2014-Oct-25 13:33N 39°51' W 075°14'0 0.0
2014-Oct-25 12:33N 39°51' W 075°14'0 0.0
2014-Oct-25 08:25N 39°51' W 075°14'0 0.0
2014-Oct-25 01:27N 39°51' W 075°14'0 0.0
2014-Oct-25 00:24N 39°51' W 075°14'0 0.0
2014-Oct-24 23:25N 39°51' W 075°14'0 0.0
2014-Oct-24 20:07N 39°51' W 075°14'0 0.0
2014-Oct-24 12:09N 39°51' W 075°14'0 0.0
2014-Oct-24 11:32N 39°51' W 075°14'0 0.0
2014-Oct-24 08:18N 39°51' W 075°14'0 0.0
2014-Oct-23 06:31N 39°51' W 075°14'0 0.0
2014-Oct-23 01:14N 39°51' W 075°14'0 0.0
2014-Oct-22 00:08N 39°51' W 075°14'0 0.1
2014-Oct-21 23:33N 39°51' W 075°14'0 0.0
2014-Oct-21 11:33N 39°51' W 075°14'  

Dump ship's entire track history